Time;durP1;ratioP1;P1;durP2;ratioP2;P2;SDS_P1;SDS_P2;PMS_P1;PMS_P2;Temp;Humidity;BMP_temperature;BMP_pressure;BME280_temperature;BME280_humidity;BME280_pressure;Samples;Min_cycle;Max_cycle;Signal;HPM_P1;HPM_P2
2023/04/27 00:02:36;;;;;;;3.30;2.53;;;;;;;2.83;76.59;98013.28;6073341;29;20673;-47
2023/04/27 00:05:39;;;;;;;3.80;2.50;;;;;;;2.79;76.62;98001.50;6072742;29;20250;-48
2023/04/27 00:08:41;;;;;;;4.27;3.00;;;;;;;2.86;76.84;98009.47;6069754;29;20323;-46
2023/04/27 00:11:43;;;;;;;5.77;2.40;;;;;;;2.86;76.42;98006.84;6069632;29;20243;-48
2023/04/27 00:14:45;;;;;;;4.63;2.33;;;;;;;2.88;75.58;98019.81;6072363;29;20245;-47
2023/04/27 00:17:47;;;;;;;5.77;2.30;;;;;;;2.90;76.23;98005.47;6073159;29;20254;-48
2023/04/27 00:20:49;;;;;;;4.33;2.50;;;;;;;2.83;76.61;98002.75;6073179;29;20795;-48
2023/04/27 00:23:53;;;;;;;2.77;2.43;;;;;;;2.83;76.69;98015.09;6073379;29;20236;-47
2023/04/27 00:26:56;;;;;;;3.13;2.50;;;;;;;2.83;76.56;98007.22;6071939;29;20228;-48
2023/04/27 00:29:58;;;;;;;3.77;2.50;;;;;;;2.80;76.38;98003.13;6070586;29;20240;-49
2023/04/27 00:33:01;;;;;;;3.73;2.67;;;;;;;2.91;76.00;98006.31;6071747;29;20610;-47
2023/04/27 00:36:04;;;;;;;4.00;2.33;;;;;;;2.84;76.35;97993.84;6054711;29;20726;-48
2023/04/27 00:39:07;;;;;;;4.43;2.60;;;;;;;2.84;76.53;98001.75;6072835;29;20246;-50
2023/04/27 00:42:14;;;;;;;4.03;2.57;;;;;;;2.82;76.33;97997.69;6059949;29;20219;-45
2023/04/27 00:45:16;;;;;;;4.47;2.23;;;;;;;2.81;76.24;98001.31;6072488;29;20228;-47
2023/04/27 00:48:19;;;;;;;3.83;2.30;;;;;;;2.80;76.36;97997.84;6063045;29;20710;-47
2023/04/27 00:51:26;;;;;;;6.37;2.60;;;;;;;2.80;75.91;98002.31;6073125;29;20231;-47
2023/04/27 00:54:29;;;;;;;5.07;2.67;;;;;;;2.80;76.51;98002.31;6067819;29;20232;-47
2023/04/27 00:57:33;;;;;;;3.70;2.63;;;;;;;2.80;76.49;97995.22;6060296;29;20614;-48
2023/04/27 01:05:09;;;;;;;3.33;2.30;;;;;;;2.62;76.54;97971.16;6075397;29;20232;-48
2023/04/27 01:08:12;;;;;;;2.93;1.93;;;;;;;2.79;76.57;97990.16;6059314;29;20244;-47
2023/04/27 01:11:14;;;;;;;2.80;2.50;;;;;;;2.76;76.52;97988.72;6076297;29;20250;-47
2023/04/27 01:14:17;;;;;;;3.63;2.37;;;;;;;2.73;76.81;97990.91;6076606;29;20235;-48
2023/04/27 01:17:19;;;;;;;3.27;2.53;;;;;;;2.69;77.00;97989.63;6075875;29;20250;-47
2023/04/27 01:20:21;;;;;;;5.33;3.00;;;;;;;2.63;77.19;98001.69;6075124;29;20319;-49
2023/04/27 01:23:23;;;;;;;6.60;2.70;;;;;;;2.58;76.96;97989.09;6075722;29;20247;-47
2023/04/27 01:26:26;;;;;;;4.47;2.73;;;;;;;2.49;76.89;97978.88;6076587;29;20720;-48
2023/04/27 01:29:28;;;;;;;4.47;2.40;;;;;;;2.53;76.23;97991.47;6074434;29;20228;-51
2023/04/27 01:32:30;;;;;;;5.33;2.70;;;;;;;2.49;76.86;97997.28;6075373;29;20263;-50
2023/04/27 01:35:32;;;;;;;4.33;2.30;;;;;;;2.41;77.06;97994.72;6071638;29;20735;-50
2023/04/27 01:38:35;;;;;;;7.53;3.03;;;;;;;2.30;77.39;98002.06;6062874;29;20280;-49
2023/04/27 01:41:37;;;;;;;7.93;2.63;;;;;;;2.17;78.21;98003.69;6075633;29;20374;-49
2023/04/27 01:44:39;;;;;;;5.80;2.83;;;;;;;2.15;77.99;98008.31;6075874;29;20235;-48
2023/04/27 01:47:43;;;;;;;3.63;2.53;;;;;;;2.10;77.89;98008.84;6058234;29;20247;-48
2023/04/27 01:50:45;;;;;;;4.00;3.10;;;;;;;2.01;78.19;97997.59;6077637;29;20269;-47
2023/04/27 01:53:47;;;;;;;9.30;4.20;;;;;;;2.00;78.26;98000.41;6080311;29;20247;-49
2023/04/27 01:56:50;;;;;;;4.43;2.63;;;;;;;1.92;78.60;97995.22;6080566;29;20723;-46
2023/04/27 01:59:52;;;;;;;3.63;2.67;;;;;;;1.85;78.99;98003.03;6073520;29;20267;-49
2023/04/27 02:02:59;;;;;;;5.07;2.50;;;;;;;1.80;79.36;98000.94;6057879;29;20580;-48
2023/04/27 02:06:02;;;;;;;6.50;3.10;;;;;;;1.74;79.29;97996.41;6058715;29;20238;-47
2023/04/27 02:09:04;;;;;;;5.90;2.90;;;;;;;1.73;79.13;98002.66;6075749;29;20236;-51
2023/04/27 02:12:06;;;;;;;5.17;3.37;;;;;;;1.69;79.07;98006.63;6057989;29;20234;-48
2023/04/27 02:15:09;;;;;;;4.93;3.20;;;;;;;1.65;78.62;98001.91;6058808;29;20238;-47
2023/04/27 02:18:14;;;;;;;4.00;3.23;;;;;;;1.69;78.55;98009.25;6071937;29;20232;-48
2023/04/27 02:21:16;;;;;;;4.90;2.80;;;;;;;1.54;79.03;98006.56;6058028;29;20722;-50
2023/04/27 02:24:18;;;;;;;5.13;3.60;;;;;;;1.49;79.28;98006.28;6074541;29;20350;-50
2023/04/27 02:27:20;;;;;;;6.70;4.07;;;;;;;1.44;79.40;98007.81;6074169;29;20250;-51
2023/04/27 02:30:23;;;;;;;7.20;3.47;;;;;;;1.34;79.90;98010.66;6054887;29;20646;-50
2023/04/27 02:33:25;;;;;;;4.63;3.57;;;;;;;1.26;79.46;98005.47;6064852;29;20732;-49
2023/04/27 02:36:28;;;;;;;4.57;2.80;;;;;;;1.18;79.56;98010.75;6058726;29;20241;-51
2023/04/27 02:39:30;;;;;;;3.97;3.20;;;;;;;1.14;79.38;98009.50;6057031;29;20254;-50
2023/04/27 02:42:32;;;;;;;4.73;3.07;;;;;;;1.07;79.68;98011.97;6073871;29;20242;-51
2023/04/27 02:45:37;;;;;;;4.33;3.10;;;;;;;0.99;80.05;98012.03;6064219;29;20250;-47
2023/04/27 02:48:39;;;;;;;3.77;2.87;;;;;;;0.95;80.39;98014.19;6073624;29;20724;-45
2023/04/27 02:51:41;;;;;;;7.40;3.33;;;;;;;0.92;80.00;98008.47;6075141;29;20241;-46
2023/04/27 02:54:44;;;;;;;5.37;3.13;;;;;;;0.76;80.13;97999.69;6073981;29;20764;-46
2023/04/27 02:57:46;;;;;;;4.60;2.97;;;;;;;0.83;79.96;98012.09;6073765;29;20236;-46
2023/04/27 03:00:54;;;;;;;7.03;3.00;;;;;;;0.78;80.14;98015.25;6071857;29;20241;-46
2023/04/27 03:03:56;;;;;;;4.90;3.43;;;;;;;0.72;80.40;98021.16;6074264;29;20232;-45
2023/04/27 03:06:58;;;;;;;4.33;3.17;;;;;;;0.69;80.28;98018.88;6057660;29;20248;-46
2023/04/27 03:10:00;;;;;;;4.90;3.30;;;;;;;0.72;80.02;98022.00;6056561;29;20241;-47
2023/04/27 03:13:04;;;;;;;6.23;3.57;;;;;;;0.72;80.27;98018.56;6073493;29;20332;-46
2023/04/27 03:16:10;;;;;;;3.00;2.70;;;;;;;0.69;80.33;98021.50;6075643;29;20276;-48
2023/04/27 03:19:13;;;;;;;4.07;3.00;;;;;;;0.68;80.39;98020.69;6058212;29;20245;-46
2023/04/27 03:22:15;;;;;;;5.10;3.10;;;;;;;0.70;80.54;98018.72;6072826;29;20229;-47
2023/04/27 03:25:18;;;;;;;4.17;2.87;;;;;;;0.75;80.16;98026.91;6067049;29;20231;-46
2023/04/27 03:28:20;;;;;;;3.03;2.70;;;;;;;0.79;79.86;98024.75;6058333;29;20629;-47
2023/04/27 03:31:22;;;;;;;7.33;3.13;;;;;;;0.81;79.82;98029.81;6072117;29;20247;-46
2023/04/27 03:34:24;;;;;;;5.10;3.10;;;;;;;0.80;79.21;98028.19;6073664;29;20240;-47
2023/04/27 03:37:26;;;;;;;6.07;3.60;;;;;;;0.73;79.44;98030.66;6061271;29;20232;-48
2023/04/27 03:40:30;;;;;;;6.07;3.80;;;;;;;0.63;80.16;98036.13;6062137;29;20247;-45
2023/04/27 03:43:32;;;;;;;7.63;3.27;;;;;;;0.57;80.32;98030.75;6067673;29;20254;-45
2023/04/27 03:46:36;;;;;;;5.67;3.17;;;;;;;0.55;80.33;98030.09;6072336;29;20302;-48
2023/04/27 03:49:39;;;;;;;4.80;3.23;;;;;;;0.55;80.39;98036.16;6060825;29;20235;-46
2023/04/27 03:52:41;;;;;;;4.20;3.07;;;;;;;0.39;80.40;98005.56;6057874;29;20232;-47
2023/04/27 03:55:44;;;;;;;3.10;2.77;;;;;;;0.59;80.36;98042.72;6056010;29;20279;-46
2023/04/27 03:58:46;;;;;;;5.87;2.80;;;;;;;0.56;80.56;98039.59;6056447;29;20290;-47
2023/04/27 04:01:53;;;;;;;7.17;3.27;;;;;;;0.58;80.08;98033.19;6055177;29;20354;-46
2023/04/27 04:04:55;;;;;;;6.50;3.03;;;;;;;0.58;80.83;98035.81;6055395;29;20265;-46
2023/04/27 04:07:57;;;;;;;5.13;3.37;;;;;;;0.58;81.27;98038.44;6056462;29;20236;-47
2023/04/27 04:11:02;;;;;;;3.70;3.30;;;;;;;0.63;81.05;98033.50;6062862;29;20237;-45
2023/04/27 04:14:04;;;;;;;5.50;3.43;;;;;;;0.70;80.93;98038.91;6055476;29;20253;-47
2023/04/27 04:17:09;;;;;;;4.83;3.37;;;;;;;0.83;80.99;98046.19;6072512;29;20241;-48
2023/04/27 04:20:14;;;;;;;4.73;3.30;;;;;;;0.89;81.26;98035.03;6056701;29;20600;-48
2023/04/27 04:23:16;;;;;;;5.93;3.57;;;;;;;0.93;81.39;98042.38;6055602;29;20657;-46
2023/04/27 04:26:19;;;;;;;4.90;3.57;;;;;;;1.05;81.03;98047.25;6070587;29;20701;-45
2023/04/27 04:29:22;;;;;;;5.30;3.30;;;;;;;1.11;80.85;98036.88;6059115;29;20705;-47
2023/04/27 04:32:30;;;;;;;6.13;2.80;;;;;;;0.92;80.86;97998.78;6077672;29;20238;-47
2023/04/27 04:35:32;;;;;;;8.40;3.03;;;;;;;1.25;80.13;98045.81;6076862;29;20246;-46
2023/04/27 04:38:34;;;;;;;4.20;2.77;;;;;;;1.39;78.71;98041.63;6061013;29;20245;-49
2023/04/27 04:41:37;;;;;;;5.23;3.40;;;;;;;1.51;77.93;98042.84;6060022;29;20265;-50
2023/04/27 04:44:41;;;;;;;5.57;3.10;;;;;;;1.60;77.74;98046.25;6059810;29;20630;-46
2023/04/27 04:47:43;;;;;;;7.83;2.47;;;;;;;1.64;76.97;98034.41;6073406;29;20908;-49
2023/04/27 04:50:46;;;;;;;6.30;2.80;;;;;;;1.79;76.67;98048.41;6065171;29;20255;-46
2023/04/27 04:53:48;;;;;;;3.53;2.50;;;;;;;1.89;76.82;98042.91;6067747;29;20244;-46
2023/04/27 04:56:51;;;;;;;3.93;2.03;;;;;;;1.96;76.44;98039.38;6076659;29;20796;-47
2023/04/27 04:59:53;;;;;;;2.83;2.37;;;;;;;2.09;76.34;98043.22;6078435;29;20333;-47
2023/04/27 05:02:55;;;;;;;3.67;2.30;;;;;;;2.19;76.41;98041.94;6076708;29;20308;-49
2023/04/27 05:05:57;;;;;;;4.37;2.47;;;;;;;2.26;75.86;98047.28;6076876;29;20729;-48
2023/04/27 05:09:00;;;;;;;5.40;2.90;;;;;;;2.30;75.82;98052.00;6075954;29;20246;-47
2023/04/27 05:12:02;;;;;;;2.67;2.30;;;;;;;2.33;74.99;98046.41;6075652;29;20335;-48
2023/04/27 05:15:05;;;;;;;3.73;2.20;;;;;;;2.39;74.97;98046.69;6075384;29;20250;-51
2023/04/27 05:18:07;;;;;;;5.23;2.27;;;;;;;2.47;74.02;98051.88;6076869;29;20235;-48
2023/04/27 05:21:14;;;;;;;4.53;2.33;;;;;;;2.52;74.58;98054.78;6075684;29;20228;-48
2023/04/27 05:24:16;;;;;;;2.93;2.10;;;;;;;2.59;74.40;98048.59;6076643;29;20785;-47
2023/04/27 05:27:18;;;;;;;4.43;1.77;;;;;;;2.66;74.19;98056.59;6076276;29;20378;-47
2023/04/27 05:30:20;;;;;;;2.40;1.90;;;;;;;2.73;74.01;98057.47;6073370;29;20227;-47
2023/04/27 05:33:22;;;;;;;2.83;2.30;;;;;;;2.81;74.06;98062.66;6075373;29;20696;-47
2023/04/27 05:36:27;;;;;;;2.43;2.00;;;;;;;2.94;74.15;98055.91;6059866;29;20611;-50
2023/04/27 05:39:29;;;;;;;4.13;2.27;;;;;;;3.10;74.51;98060.94;6075528;29;20316;-49
2023/04/27 05:42:31;;;;;;;6.67;3.00;;;;;;;3.31;74.43;98060.19;6057966;29;20721;-48
2023/04/27 05:45:38;;;;;;;3.77;2.10;;;;;;;3.61;74.87;98066.19;6071308;29;20243;-47
2023/04/27 05:48:40;;;;;;;2.60;2.27;;;;;;;3.87;74.20;98061.16;6076397;29;20838;-49
2023/04/27 05:51:43;;;;;;;2.83;2.00;;;;;;;4.19;73.44;98069.53;6075484;29;20707;-48
2023/04/27 05:54:48;;;;;;;3.57;2.00;;;;;;;4.44;72.77;98066.47;6075787;29;20244;-48
2023/04/27 05:57:51;;;;;;;3.10;1.97;;;;;;;4.68;72.66;98078.34;6077353;29;20760;-47
2023/04/27 06:01:08;;;;;;;5.27;2.60;;;;;;;4.91;72.34;98070.97;6075469;29;20316;-51
2023/04/27 06:04:10;;;;;;;2.63;2.10;;;;;;;5.10;72.64;98072.88;6072085;29;20239;-48
2023/04/27 06:07:14;;;;;;;3.73;2.17;;;;;;;5.33;72.94;98069.94;6075013;29;20604;-51
2023/04/27 06:10:17;;;;;;;3.60;2.10;;;;;;;5.54;73.11;98070.81;6078207;29;20265;-50
2023/04/27 06:13:19;;;;;;;2.60;2.10;;;;;;;5.52;73.33;98036.66;6074563;29;20626;-48
2023/04/27 06:16:22;;;;;;;4.17;2.20;;;;;;;5.83;72.74;98046.66;6067173;29;20254;-51
2023/04/27 06:19:25;;;;;;;2.60;2.20;;;;;;;6.20;71.68;98076.19;6073079;29;20329;-51
2023/04/27 06:22:27;;;;;;;4.50;2.30;;;;;;;6.40;69.13;98079.66;6078325;29;20636;-51
2023/04/27 06:25:30;;;;;;;3.47;1.67;;;;;;;6.61;68.09;98093.69;6076899;29;20617;-50
2023/04/27 06:28:32;;;;;;;3.37;1.97;;;;;;;6.77;63.44;98087.13;6074322;29;20245;-51
2023/04/27 06:31:35;;;;;;;3.70;1.53;;;;;;;6.93;60.90;98084.81;6078327;29;20603;-49
2023/04/27 06:34:37;;;;;;;3.13;1.60;;;;;;;7.12;58.18;98087.63;6075405;29;20711;-51
2023/04/27 06:37:40;;;;;;;4.70;1.60;;;;;;;7.33;55.43;98091.81;6074107;29;20230;-52
2023/04/27 06:40:42;;;;;;;4.13;1.57;;;;;;;7.57;55.09;98092.94;6079120;29;20624;-46
2023/04/27 06:43:44;;;;;;;7.60;2.07;;;;;;;7.72;52.44;98093.47;6074210;29;20325;-47
2023/04/27 06:46:46;;;;;;;4.93;1.60;;;;;;;7.85;51.28;98088.09;6076372;29;20270;-51
2023/04/27 06:49:48;;;;;;;4.07;2.00;;;;;;;8.02;47.65;98086.50;6079531;29;20232;-46
2023/04/27 06:52:51;;;;;;;3.03;2.00;;;;;;;8.22;47.99;98094.31;6076176;29;20231;-52
2023/04/27 06:55:55;;;;;;;9.47;2.53;;;;;;;8.48;47.69;98097.84;6072376;29;20331;-47
2023/04/27 06:59:00;;;;;;;4.53;1.90;;;;;;;8.59;45.17;98098.97;6073970;29;20252;-46
2023/04/27 07:02:02;;;;;;;6.33;2.17;;;;;;;8.74;47.62;98099.44;6077236;29;20239;-47
2023/04/27 07:05:04;;;;;;;3.67;2.10;;;;;;;8.87;46.06;98104.63;6075691;29;20244;-48
2023/04/27 07:08:07;;;;;;;3.87;2.17;;;;;;;8.93;44.85;98095.75;6074433;29;20310;-48
2023/04/27 07:11:10;;;;;;;4.40;2.30;;;;;;;8.97;44.53;98091.63;6077225;29;20245;-47
2023/04/27 07:14:12;;;;;;;4.37;2.43;;;;;;;9.09;42.27;98082.91;6061508;29;20326;-47
2023/04/27 07:17:14;;;;;;;4.40;1.83;;;;;;;8.97;44.94;98088.19;6077370;29;20244;-47
2023/04/27 07:20:17;;;;;;;3.30;2.17;;;;;;;8.98;45.11;98093.25;6075738;29;20263;-47
2023/04/27 07:23:19;;;;;;;3.30;2.10;;;;;;;9.01;42.99;98087.50;6076701;29;20226;-47
2023/04/27 07:26:23;;;;;;;5.93;2.60;;;;;;;9.02;42.03;98085.66;6077338;29;20259;-47
2023/04/27 07:29:27;;;;;;;5.83;2.43;;;;;;;9.15;43.35;98088.16;6076830;29;20236;-47
2023/04/27 07:32:29;;;;;;;5.17;2.23;;;;;;;9.27;44.01;98097.03;6073833;29;20908;-47
2023/04/27 07:35:32;;;;;;;7.03;2.50;;;;;;;9.35;41.27;98090.56;6056258;29;20233;-48
2023/04/27 07:38:34;;;;;;;3.43;2.00;;;;;;;9.26;40.75;98086.59;6075082;29;20339;-47
2023/04/27 07:41:36;;;;;;;7.47;2.33;;;;;;;9.25;40.98;98093.75;6073552;29;20322;-48
2023/04/27 07:44:39;;;;;;;4.73;2.50;;;;;;;9.52;40.71;98096.91;6073957;29;20232;-47
2023/04/27 07:47:42;;;;;;;7.37;2.50;;;;;;;9.40;39.46;98090.72;6076227;29;20267;-48
2023/04/27 07:50:45;;;;;;;3.93;2.13;;;;;;;9.53;40.22;98087.88;6076746;29;20263;-47
2023/04/27 07:53:47;;;;;;;2.50;2.13;;;;;;;9.65;39.89;98092.44;6079281;29;20239;-48
2023/04/27 07:56:49;;;;;;;5.10;2.23;;;;;;;9.87;39.46;98095.41;6073917;29;20620;-47
2023/04/27 07:59:51;;;;;;;4.97;2.10;;;;;;;9.82;39.35;98093.44;6076432;29;20221;-48
2023/04/27 08:02:54;;;;;;;5.50;2.07;;;;;;;9.91;39.47;98093.94;6074504;29;20240;-49
2023/04/27 08:05:57;;;;;;;2.67;1.80;;;;;;;10.03;40.99;98092.91;6057156;29;20705;-50
2023/04/27 08:09:00;;;;;;;5.63;2.10;;;;;;;10.06;39.72;98091.66;6074345;29;20599;-48
2023/04/27 08:12:03;;;;;;;3.03;1.53;;;;;;;10.23;39.62;98094.47;6076277;29;20926;-47
2023/04/27 08:15:06;;;;;;;2.93;1.63;;;;;;;10.29;37.55;98096.22;6073428;29;20314;-47
2023/04/27 08:18:08;;;;;;;3.30;1.93;;;;;;;10.31;38.59;98086.19;6072348;29;20243;-48
2023/04/27 08:21:10;;;;;;;6.10;2.07;;;;;;;10.46;37.62;98088.38;6076654;29;20594;-48
2023/04/27 08:24:12;;;;;;;6.03;2.13;;;;;;;10.49;36.81;98093.25;6059350;29;20358;-48
2023/04/27 08:27:15;;;;;;;4.33;2.17;;;;;;;10.52;37.47;98082.94;6073990;29;20443;-48
2023/04/27 08:30:17;;;;;;;7.60;2.53;;;;;;;10.68;37.12;98096.59;6071015;29;20218;-47
2023/04/27 08:33:19;;;;;;;4.87;2.10;;;;;;;10.61;36.38;98093.25;6069829;29;20261;-47
2023/04/27 08:36:23;;;;;;;5.10;2.00;;;;;;;10.37;37.10;98077.25;6072954;29;20238;-48
2023/04/27 08:39:25;;;;;;;7.43;2.53;;;;;;;10.47;37.09;98090.00;6072910;29;20321;-49
2023/04/27 08:42:29;;;;;;;5.93;2.30;;;;;;;10.59;37.92;98099.63;6064220;29;20243;-50
2023/04/27 08:45:31;;;;;;;7.17;2.60;;;;;;;10.92;37.20;98094.75;6071612;29;20595;-49
2023/04/27 08:48:34;;;;;;;6.40;2.47;;;;;;;10.95;37.60;98100.44;6072145;29;20246;-50
2023/04/27 08:51:36;;;;;;;7.37;3.03;;;;;;;11.00;37.72;98097.06;6068172;29;20756;-48
2023/04/27 08:54:38;;;;;;;4.40;2.53;;;;;;;10.99;38.45;98098.91;6072148;29;20262;-48
2023/04/27 08:57:40;;;;;;;6.57;2.37;;;;;;;10.98;38.93;98104.47;6053843;29;20247;-50
2023/04/27 09:00:44;;;;;;;3.63;2.40;;;;;;;10.92;37.96;98100.88;6072093;29;20262;-48
2023/04/27 09:03:47;;;;;;;5.40;2.70;;;;;;;10.92;37.18;98092.06;6072393;29;20242;-50
2023/04/27 09:06:49;;;;;;;3.20;2.03;;;;;;;10.98;39.60;98099.94;6069125;29;20236;-51
2023/04/27 09:10:02;;;;;;;4.60;2.13;;;;;;;11.25;39.79;98102.13;6072485;29;20239;-49
2023/04/27 09:13:04;;;;;;;4.47;2.23;;;;;;;11.42;38.11;98086.97;6074006;29;20243;-50
2023/04/27 09:16:07;;;;;;;4.83;2.03;;;;;;;11.71;38.39;98090.47;6075737;29;20245;-51
2023/04/27 09:19:10;;;;;;;3.17;2.20;;;;;;;11.89;38.00;98094.84;6075613;29;20247;-48
2023/04/27 09:22:14;;;;;;;2.17;1.83;;;;;;;12.16;36.41;98083.53;6075713;29;20281;-52
2023/04/27 09:25:31;;;;;;;5.33;2.73;;;;;;;12.26;35.34;98081.84;6077842;29;20531;-49
2023/04/27 09:28:36;;;;;;;5.07;2.60;;;;;;;12.04;37.38;98087.09;6075667;29;20348;-47
2023/04/27 09:31:39;;;;;;;5.97;2.33;;;;;;;12.28;39.04;98084.28;6071466;29;20244;-50
2023/04/27 09:34:41;;;;;;;8.20;2.60;;;;;;;12.22;37.39;98083.41;6073608;29;20740;-49
2023/04/27 09:37:43;;;;;;;3.70;2.60;;;;;;;12.24;36.47;98072.47;6074776;29;20335;-48
2023/04/27 09:40:46;;;;;;;3.13;2.23;;;;;;;12.04;35.38;98073.75;6060436;29;21018;-48
2023/04/27 09:43:48;;;;;;;4.90;2.47;;;;;;;11.93;35.80;98063.94;6075107;29;20243;-48
2023/04/27 09:46:51;;;;;;;5.03;2.13;;;;;;;11.98;35.78;98074.72;6075332;29;20306;-50
2023/04/27 09:49:54;;;;;;;4.93;2.27;;;;;;;11.71;36.13;98077.13;6074906;29;20248;-49
2023/04/27 09:52:57;;;;;;;3.27;2.20;;;;;;;11.83;35.91;98072.59;6080658;29;20248;-46
2023/04/27 09:56:15;;;;;;;4.07;2.53;;;;;;;11.92;36.21;98070.34;6075958;29;20629;-48
2023/04/27 09:59:29;;;;;;;2.93;2.20;;;;;;;11.63;39.67;98075.66;6075139;29;20239;-47
2023/04/27 10:02:44;;;;;;;3.23;2.10;;;;;;;11.68;37.16;98066.94;6074492;29;20241;-49
2023/04/27 10:06:25;;;;;;;5.83;2.60;;;;;;;11.84;37.63;98052.84;6075354;29;20271;-48
2023/04/27 10:09:35;;;;;;;5.73;2.27;;;;;;;11.88;37.69;98058.53;6074055;29;20251;-48
2023/04/27 10:12:37;;;;;;;6.43;2.40;;;;;;;12.09;38.59;98052.47;6074533;29;20676;-47
2023/04/27 10:15:39;;;;;;;5.93;3.10;;;;;;;12.17;37.67;98055.78;6075927;29;20292;-48
2023/04/27 10:18:55;;;;;;;3.47;2.50;;;;;;;12.26;39.30;98024.94;6075972;29;20248;-49
2023/04/27 10:22:02;;;;;;;4.23;2.70;;;;;;;12.43;36.56;98051.66;6074373;29;20643;-48
2023/04/27 10:25:20;;;;;;;4.87;3.20;;;;;;;12.19;36.37;98054.50;6073911;29;20634;-49
2023/04/27 10:28:23;;;;;;;7.97;2.67;;;;;;;12.20;36.40;98044.63;6075494;29;20832;-50
2023/04/27 10:31:28;;;;;;;3.63;2.87;;;;;;;11.89;37.01;98044.13;6072418;29;20247;-48
2023/04/27 10:34:35;;;;;;;5.20;2.77;;;;;;;11.85;37.21;98051.78;6074064;29;20243;-49
2023/04/27 10:37:40;;;;;;;6.80;2.90;;;;;;;11.87;37.00;98048.88;6074647;29;20247;-48
2023/04/27 10:41:03;;;;;;;8.10;2.97;;;;;;;12.03;37.90;98036.59;6074004;29;20247;-49
2023/04/27 10:44:16;;;;;;;3.57;2.20;;;;;;;12.44;38.90;98042.59;6075168;29;20288;-51
2023/04/27 10:47:18;;;;;;;5.03;2.50;;;;;;;12.41;35.33;98035.84;6073541;29;20234;-48
2023/04/27 10:50:22;;;;;;;4.80;2.67;;;;;;;12.45;35.68;98041.53;6074044;29;20266;-48
2023/04/27 10:53:25;;;;;;;4.97;2.30;;;;;;;12.60;35.74;98039.06;6073228;29;20828;-52
2023/04/27 10:56:28;;;;;;;7.63;2.83;;;;;;;12.69;36.08;98034.13;6073460;29;20312;-49
2023/04/27 10:59:30;;;;;;;6.07;2.67;;;;;;;12.78;35.55;98033.44;6073768;29;20643;-49
2023/04/27 11:02:32;;;;;;;5.80;2.63;;;;;;;12.95;37.40;98036.06;6076678;29;20243;-52
2023/04/27 11:05:34;;;;;;;4.23;2.87;;;;;;;13.01;34.88;98028.94;6073553;29;20753;-50
2023/04/27 11:08:44;;;;;;;4.20;2.37;;;;;;;13.18;34.67;98030.47;6076209;29;20236;-52
2023/04/27 11:11:46;;;;;;;5.87;2.90;;;;;;;12.72;35.10;98029.09;6072787;29;20662;-48
2023/04/27 11:14:49;;;;;;;4.33;2.80;;;;;;;12.66;34.59;98024.75;6073903;29;20295;-50
2023/04/27 11:17:51;;;;;;;4.33;2.67;;;;;;;12.87;35.50;98033.84;6073377;29;20236;-50
2023/04/27 11:21:11;;;;;;;5.87;2.90;;;;;;;12.79;34.54;98035.06;6075486;29;20734;-50
2023/04/27 11:24:13;;;;;;;5.93;2.53;;;;;;;12.64;35.25;98034.84;6072080;29;20240;-52
2023/04/27 11:27:17;;;;;;;4.20;2.50;;;;;;;12.62;36.16;98039.66;6071412;29;20234;-49
2023/04/27 11:30:23;;;;;;;4.00;2.70;;;;;;;12.38;35.51;98023.81;6071497;29;20274;-50
2023/04/27 11:33:26;;;;;;;9.93;2.90;;;;;;;12.70;36.20;98035.72;6063721;29;20363;-51
2023/04/27 11:36:28;;;;;;;5.30;3.00;;;;;;;12.78;34.45;98033.44;6072561;29;20236;-51
2023/04/27 11:39:36;;;;;;;6.00;2.70;;;;;;;12.83;34.50;98032.72;6072999;29;20235;-52
2023/04/27 11:42:42;;;;;;;5.40;2.60;;;;;;;12.93;35.65;98040.06;6073869;29;20614;-51
2023/04/27 11:45:44;;;;;;;5.30;2.77;;;;;;;13.11;36.64;98037.88;6072505;29;20250;-52
2023/04/27 11:48:46;;;;;;;5.47;2.80;;;;;;;12.99;33.71;98033.72;6072834;29;20358;-52
2023/04/27 11:51:48;;;;;;;4.63;2.60;;;;;;;12.80;35.13;98027.84;6073501;29;20238;-50
2023/04/27 11:54:55;;;;;;;4.63;2.50;;;;;;;12.88;36.06;98028.22;6079458;29;20715;-52
2023/04/27 12:16:23;;;;;;;4.90;2.30;;;;;;;12.85;34.99;98017.22;5738207;29;20248;-48
2023/04/27 12:19:26;;;;;;;3.63;2.03;;;;;;;12.83;34.90;98011.31;6071348;29;20268;-48
2023/04/27 12:22:29;;;;;;;4.90;1.90;;;;;;;12.81;34.89;98008.09;6076010;29;20260;-48
2023/04/27 12:25:31;;;;;;;6.07;2.23;;;;;;;12.68;33.66;98014.59;6077152;29;20242;-49
2023/04/27 12:28:33;;;;;;;5.17;2.03;;;;;;;12.62;34.61;98010.25;6071626;29;20943;-48
2023/04/27 12:31:35;;;;;;;3.00;1.87;;;;;;;12.57;33.10;98013.66;6073516;29;20418;-48
2023/04/27 12:34:38;;;;;;;4.60;2.10;;;;;;;12.52;33.72;98002.91;6060347;29;20232;-49
2023/04/27 12:37:41;;;;;;;4.43;2.20;;;;;;;12.65;32.51;98005.19;6074489;29;20240;-48
2023/04/27 12:40:43;;;;;;;2.57;1.70;;;;;;;12.67;34.12;98007.66;6076986;29;20284;-48
2023/04/27 12:43:46;;;;;;;2.73;1.83;;;;;;;13.00;33.65;98004.03;6078355;29;20357;-48
2023/04/27 12:46:48;;;;;;;3.00;1.90;;;;;;;13.10;35.21;98000.66;6071409;29;20253;-49
2023/04/27 12:49:51;;;;;;;3.73;2.50;;;;;;;13.31;33.05;98004.44;6075980;29;20240;-49
2023/04/27 12:52:53;;;;;;;4.60;1.80;;;;;;;12.77;33.57;97983.72;6076217;29;20236;-49
2023/04/27 12:55:55;;;;;;;3.50;2.10;;;;;;;12.95;33.52;98006.66;6078731;29;20243;-48
2023/04/27 12:58:59;;;;;;;5.43;2.43;;;;;;;12.77;33.72;98007.78;6082523;29;20235;-48
2023/04/27 13:02:06;;;;;;;3.10;2.07;;;;;;;12.64;33.70;97997.44;6080577;29;20228;-48
2023/04/27 13:05:10;;;;;;;2.83;1.90;;;;;;;12.61;34.40;97995.25;6076628;29;20243;-50
2023/04/27 13:08:12;;;;;;;2.77;2.10;;;;;;;12.75;34.39;97998.38;6077760;29;20238;-48
2023/04/27 13:11:15;;;;;;;2.70;2.03;;;;;;;12.80;35.81;97993.91;6079571;29;20235;-47
2023/04/27 13:14:17;;;;;;;3.60;1.70;;;;;;;12.93;35.75;97999.94;6078420;29;20224;-49
2023/04/27 13:17:19;;;;;;;6.20;2.10;;;;;;;13.01;33.40;98004.88;6084519;29;20239;-48
2023/04/27 13:20:22;;;;;;;3.77;2.00;;;;;;;12.91;33.92;98009.03;6083595;29;20760;-47
2023/04/27 13:23:25;;;;;;;3.57;1.97;;;;;;;12.98;33.74;98002.69;6081494;29;20235;-49
2023/04/27 13:26:27;;;;;;;4.60;1.93;;;;;;;13.00;35.03;98003.22;6090352;29;20215;-48
2023/04/27 13:29:30;;;;;;;2.50;1.70;;;;;;;13.08;34.87;98000.13;6080003;29;20216;-50
2023/04/27 13:41:41;;;;;;;4.60;1.97;;;;;;;13.80;33.86;97991.00;6076090;29;20225;-49
2023/04/27 13:44:43;;;;;;;5.00;2.00;;;;;;;14.08;31.70;97997.91;6076591;29;20220;-49
2023/04/27 13:47:45;;;;;;;5.17;2.50;;;;;;;14.17;31.77;97994.50;6079147;29;20224;-48
2023/04/27 13:50:48;;;;;;;2.83;1.90;;;;;;;13.80;30.80;97988.31;6079444;29;20235;-48
2023/04/27 13:53:50;;;;;;;3.73;2.13;;;;;;;13.77;32.32;97986.94;6080444;29;20240;-48
2023/04/27 13:56:52;;;;;;;2.77;1.90;;;;;;;13.82;33.01;97978.16;6063003;29;20737;-49
2023/04/27 13:59:56;;;;;;;3.53;1.73;;;;;;;13.97;31.00;97993.53;6078484;29;20224;-49
2023/04/27 14:03:00;;;;;;;4.90;2.37;;;;;;;13.73;30.51;97993.88;6078777;29;20232;-51
2023/04/27 14:06:02;;;;;;;5.43;2.00;;;;;;;13.53;30.26;97988.31;6079727;29;20766;-48
2023/04/27 14:09:05;;;;;;;3.97;1.63;;;;;;;13.36;31.91;97991.09;6081949;29;20224;-48
2023/04/27 14:12:07;;;;;;;3.17;1.97;;;;;;;13.56;31.83;97980.59;6078627;29;20231;-51
2023/04/27 14:15:11;;;;;;;4.73;2.20;;;;;;;13.75;30.90;97977.56;6077355;29;20306;-51
2023/04/27 14:18:16;;;;;;;4.13;2.30;;;;;;;13.74;31.54;97973.25;6079926;29;20242;-49
2023/04/27 14:21:21;;;;;;;4.30;1.93;;;;;;;13.75;32.01;97982.91;6077440;29;20232;-48
2023/04/27 14:24:25;;;;;;;2.73;1.70;;;;;;;13.81;32.00;97979.22;6076093;29;20229;-48
2023/04/27 14:27:27;;;;;;;3.77;1.80;;;;;;;13.81;32.25;97990.72;6076837;29;20242;-48
2023/04/27 14:30:31;;;;;;;2.40;1.80;;;;;;;13.75;31.97;97996.31;6079764;29;20777;-48
2023/04/27 14:33:33;;;;;;;6.70;2.30;;;;;;;13.73;31.70;97993.06;6078531;29;20236;-51
2023/04/27 14:36:35;;;;;;;6.23;2.00;;;;;;;13.50;33.27;97995.00;6063078;29;20271;-48
2023/04/27 14:39:36;;;;;;;2.70;1.77;;;;;;;13.36;34.69;97988.44;6074407;29;20717;-48
2023/04/27 14:42:38;;;;;;;3.13;1.47;;;;;;;13.26;35.74;97980.31;6073985;29;20236;-52
2023/04/27 14:45:41;;;;;;;4.93;2.37;;;;;;;13.20;33.04;97986.59;6074038;29;20248;-47
2023/04/27 14:48:56;;;;;;;5.97;1.97;;;;;;;13.38;33.51;97988.97;6074717;29;20283;-49
2023/04/27 14:52:02;;;;;;;3.63;2.00;;;;;;;13.47;33.84;97990.16;6074620;29;20239;-49
2023/04/27 14:55:05;;;;;;;4.27;1.90;;;;;;;13.47;33.64;97986.66;6074639;29;20249;-49
2023/04/27 14:58:07;;;;;;;2.87;1.60;;;;;;;13.47;34.74;97986.66;6066999;29;20240;-50
2023/04/27 15:01:09;;;;;;;4.80;2.23;;;;;;;13.78;33.47;97993.09;6074821;29;20256;-48
2023/04/27 15:04:11;;;;;;;3.37;2.13;;;;;;;13.74;32.24;97983.97;6074047;29;20243;-48